Time;durP1;ratioP1;P1;durP2;ratioP2;P2;SDS_P1;SDS_P2;PMS_P1;PMS_P2;Temp;Humidity;BMP_temperature;BMP_pressure;BME280_temperature;BME280_humidity;BME280_pressure;Samples;Min_cycle;Max_cycle;Signal;HPM_P1;HPM_P2
2023/03/10 00:00:24;;;;;;;35.40;21.47;;;;;;;1.89;100.00;99511.25;4990348;28;20200;-68
2023/03/10 00:02:49;;;;;;;34.23;21.50;;;;;;;1.90;100.00;99510.44;4997121;28;20191;-68
2023/03/10 00:05:17;;;;;;;36.47;21.93;;;;;;;1.86;100.00;99506.09;4989321;28;20290;-67
2023/03/10 00:07:43;;;;;;;33.83;21.17;;;;;;;1.85;100.00;99504.38;4987230;28;20249;-67
2023/03/10 00:10:11;;;;;;;33.63;21.73;;;;;;;1.84;100.00;99490.06;4989623;28;20216;-68
2023/03/10 00:12:36;;;;;;;34.67;21.90;;;;;;;1.86;100.00;99488.44;4990298;28;20203;-67
2023/03/10 00:15:03;;;;;;;36.27;22.43;;;;;;;1.86;100.00;99488.44;4987218;28;20227;-68
2023/03/10 00:17:29;;;;;;;37.60;21.63;;;;;;;1.84;100.00;99480.81;4998477;28;20649;-68
2023/03/10 00:19:55;;;;;;;33.83;20.87;;;;;;;1.85;100.00;99469.94;4990851;28;20248;-67
2023/03/10 00:22:20;;;;;;;34.50;21.33;;;;;;;1.82;100.00;99461.38;4996238;28;20250;-68
2023/03/10 00:24:46;;;;;;;38.00;22.73;;;;;;;1.81;100.00;99473.16;4994102;28;20215;-67
2023/03/10 00:27:11;;;;;;;34.33;22.47;;;;;;;1.76;100.00;99459.56;4995059;28;20214;-67
2023/03/10 00:29:37;;;;;;;34.93;21.50;;;;;;;1.80;100.00;99456.31;4990668;28;20203;-68
2023/03/10 00:32:02;;;;;;;34.77;21.50;;;;;;;1.78;100.00;99447.84;4984692;28;20193;-67
2023/03/10 00:34:28;;;;;;;36.30;22.33;;;;;;;1.77;100.00;99441.06;4987783;28;20271;-68
2023/03/10 00:36:53;;;;;;;36.20;22.43;;;;;;;1.75;100.00;99439.31;4991118;28;20249;-68
2023/03/10 00:39:19;;;;;;;34.83;21.27;;;;;;;1.76;100.00;99438.50;4992750;28;20200;-67
2023/03/10 00:41:45;;;;;;;36.10;21.77;;;;;;;1.76;100.00;99424.25;4992134;28;20191;-68
2023/03/10 00:44:10;;;;;;;36.53;22.07;;;;;;;1.79;100.00;99424.31;4992537;28;20556;-67
2023/03/10 00:46:39;;;;;;;36.70;22.50;;;;;;;1.77;100.00;99423.41;4988372;28;20284;-67
2023/03/10 00:49:06;;;;;;;38.03;22.67;;;;;;;1.81;100.00;99415.13;4989633;28;20184;-68
2023/03/10 00:51:32;;;;;;;33.87;20.37;;;;;;;1.76;100.00;99414.16;4990201;28;20219;-68
2023/03/10 00:54:00;;;;;;;31.93;20.27;;;;;;;1.79;100.00;99404.13;4973933;28;20227;-67
2023/03/10 00:56:26;;;;;;;35.93;23.07;;;;;;;1.79;100.00;99395.72;4990236;28;20210;-68
2023/03/10 00:58:54;;;;;;;32.30;19.60;;;;;;;1.77;100.00;99399.84;4983971;28;20204;-68
2023/03/10 01:01:28;;;;;;;34.43;21.43;;;;;;;1.78;100.00;99392.34;4985617;28;20279;-67
2023/03/10 01:03:55;;;;;;;31.53;18.63;;;;;;;1.80;100.00;99377.25;4993049;28;20617;-67
2023/03/10 01:06:21;;;;;;;36.00;20.60;;;;;;;1.79;100.00;99373.84;4989387;28;20206;-67
2023/03/10 01:08:47;;;;;;;34.43;20.73;;;;;;;1.78;100.00;99367.09;4996538;28;20199;-67
2023/03/10 01:11:14;;;;;;;32.77;20.47;;;;;;;1.77;100.00;99372.09;4987181;28;20201;-68
2023/03/10 01:13:41;;;;;;;36.07;22.13;;;;;;;1.73;100.00;99353.50;4985050;28;20225;-68
2023/03/10 01:16:07;;;;;;;35.37;21.43;;;;;;;1.73;100.00;99353.50;4986138;28;20196;-67
2023/03/10 01:18:32;;;;;;;34.83;22.00;;;;;;;1.73;100.00;99343.41;4993351;28;20203;-68
2023/03/10 01:20:58;;;;;;;34.73;22.07;;;;;;;1.74;100.00;99345.13;4990662;28;20266;-68
2023/03/10 01:23:25;;;;;;;37.33;22.70;;;;;;;1.71;100.00;99341.66;4994379;28;20204;-68
2023/03/10 01:25:51;;;;;;;36.10;21.10;;;;;;;1.69;100.00;99338.25;4992043;28;20187;-67
2023/03/10 01:28:17;;;;;;;36.97;21.93;;;;;;;1.70;100.00;99330.69;4995478;28;20677;-68
2023/03/10 01:30:43;;;;;;;35.73;21.73;;;;;;;1.68;100.00;99323.91;4994103;28;20235;-68
2023/03/10 01:33:10;;;;;;;37.70;22.43;;;;;;;1.71;100.00;99321.47;4990591;28;20234;-67
2023/03/10 01:35:36;;;;;;;36.47;21.37;;;;;;;1.70;100.00;99324.81;4990497;28;20218;-68
2023/03/10 01:38:03;;;;;;;38.87;21.93;;;;;;;1.72;100.00;99320.66;4991497;28;20207;-68
2023/03/10 01:40:29;;;;;;;37.40;22.67;;;;;;;1.70;100.00;99313.03;4994005;28;20229;-68
2023/03/10 01:43:33;;;;;;;36.87;21.80;;;;;;;1.73;100.00;99314.81;4987162;28;20551;-68
2023/03/10 01:46:23;;;;;;;34.23;21.40;;;;;;;1.66;100.00;99317.97;5000496;28;20294;-67
2023/03/10 01:48:48;;;;;;;37.10;22.27;;;;;;;1.69;100.00;99311.34;4987550;28;20738;-68
2023/03/10 01:51:14;;;;;;;34.10;21.83;;;;;;;1.67;100.00;99300.38;4989415;28;20210;-68
2023/03/10 01:53:40;;;;;;;34.73;21.00;;;;;;;1.69;100.00;99301.25;4991295;28;20298;-68
2023/03/10 01:56:05;;;;;;;35.87;22.40;;;;;;;1.69;100.00;99293.69;4987318;28;20266;-68
2023/03/10 01:58:38;;;;;;;35.53;22.03;;;;;;;1.69;100.00;99291.16;4988397;28;20289;-68
2023/03/10 02:01:05;;;;;;;35.37;21.87;;;;;;;1.67;100.00;99290.28;4982415;28;20223;-68
2023/03/10 02:03:39;;;;;;;36.17;22.07;;;;;;;1.67;100.00;99285.22;5002586;28;20204;-68
2023/03/10 02:06:09;;;;;;;36.93;22.63;;;;;;;1.67;100.00;99275.16;4988220;28;20200;-68
2023/03/10 02:08:42;;;;;;;36.67;21.37;;;;;;;1.63;100.00;99263.25;4987807;28;20216;-68
2023/03/10 02:11:08;;;;;;;39.30;23.50;;;;;;;1.62;100.00;99261.56;4999702;28;20201;-67
2023/03/10 02:13:33;;;;;;;42.23;23.47;;;;;;;1.61;100.00;99248.91;4989801;28;20202;-68
2023/03/10 02:15:59;;;;;;;40.50;23.77;;;;;;;1.60;100.00;99240.47;4987998;28;20681;-67
2023/03/10 02:18:25;;;;;;;43.93;24.90;;;;;;;1.60;100.00;99235.41;4988306;28;20278;-68
2023/03/10 02:20:59;;;;;;;42.70;24.83;;;;;;;1.57;100.00;99232.84;5013385;23;20326;-68
2023/03/10 02:23:37;;;;;;;41.30;23.27;;;;;;;1.58;100.00;99224.44;4989947;28;20187;-68
2023/03/10 02:26:34;;;;;;;43.47;23.27;;;;;;;1.56;100.00;99220.16;4992543;28;20187;-68
2023/03/10 02:29:05;;;;;;;43.63;24.73;;;;;;;1.54;100.00;99204.13;4974386;28;20262;-69
2023/03/10 02:31:32;;;;;;;42.57;24.70;;;;;;;1.55;100.00;99203.31;4990795;28;20192;-68
2023/03/10 02:33:59;;;;;;;41.00;23.07;;;;;;;1.51;100.00;99193.97;4986775;28;20242;-69
2023/03/10 02:36:24;;;;;;;38.03;22.47;;;;;;;1.52;100.00;99188.13;4991683;28;20206;-69
2023/03/10 02:38:50;;;;;;;38.37;22.53;;;;;;;1.50;100.00;99179.63;4990631;28;20195;-69
2023/03/10 02:41:27;;;;;;;38.50;23.27;;;;;;;1.50;100.00;99170.41;4990483;28;20577;-69
2023/03/10 02:43:56;;;;;;;36.03;21.97;;;;;;;1.45;100.00;99166.06;4989503;28;20233;-67
2023/03/10 02:46:26;;;;;;;39.03;22.13;;;;;;;1.47;100.00;99160.25;4992413;28;20203;-68
2023/03/10 02:48:51;;;;;;;39.70;23.27;;;;;;;1.48;100.00;99156.94;4980144;28;20224;-68
2023/03/10 02:51:30;;;;;;;38.97;22.63;;;;;;;1.50;100.00;99147.72;4991885;28;20237;-67
2023/03/10 02:53:59;;;;;;;38.40;22.17;;;;;;;1.50;100.00;99154.44;4971176;28;20683;-68
2023/03/10 02:56:25;;;;;;;36.57;22.07;;;;;;;1.48;100.00;99146.84;4991765;28;20242;-67
2023/03/10 02:58:51;;;;;;;34.77;21.00;;;;;;;1.48;100.00;99143.47;4990628;28;20741;-68
2023/03/10 03:01:17;;;;;;;34.80;20.77;;;;;;;1.49;100.00;99143.50;4987459;28;20265;-68
2023/03/10 03:03:42;;;;;;;34.97;20.97;;;;;;;1.49;100.00;99143.50;4990276;28;20198;-67
2023/03/10 03:06:09;;;;;;;34.20;20.60;;;;;;;1.49;100.00;99146.03;4992756;28;20243;-67
2023/03/10 03:08:34;;;;;;;32.20;20.53;;;;;;;1.48;100.00;99144.31;4991610;28;20237;-68
2023/03/10 03:11:03;;;;;;;35.30;20.97;;;;;;;1.47;100.00;99150.16;4992969;28;20208;-67
2023/03/10 03:13:29;;;;;;;33.67;20.37;;;;;;;1.49;100.00;99137.59;4990894;28;20205;-69
2023/03/10 03:15:54;;;;;;;33.43;20.67;;;;;;;1.49;100.00;99130.03;4992358;28;20298;-67
2023/03/10 03:18:20;;;;;;;33.70;20.90;;;;;;;1.50;100.00;99136.78;4988189;28;20359;-68
2023/03/10 03:20:46;;;;;;;32.33;19.40;;;;;;;1.51;100.00;99133.47;4994268;28;20287;-67
2023/03/10 03:23:12;;;;;;;35.50;19.87;;;;;;;1.49;100.00;99123.34;4987096;28;20194;-67
2023/03/10 03:25:39;;;;;;;30.20;18.60;;;;;;;1.49;100.00;99125.00;4991998;28;20202;-67
2023/03/10 03:28:07;;;;;;;32.00;19.20;;;;;;;1.48;100.00;99119.13;4990145;28;20204;-68
2023/03/10 03:30:33;;;;;;;34.40;18.83;;;;;;;1.46;100.00;99114.84;4992497;28;20203;-68
2023/03/10 03:33:00;;;;;;;30.20;18.87;;;;;;;1.45;100.00;99113.97;4990495;28;20198;-69
2023/03/10 03:35:29;;;;;;;33.33;20.23;;;;;;;1.46;100.00;99117.38;4990959;28;20211;-68
2023/03/10 03:37:55;;;;;;;30.73;19.27;;;;;;;1.46;100.00;99107.28;4989964;28;20245;-67
2023/03/10 03:40:23;;;;;;;32.10;20.23;;;;;;;1.43;100.00;99110.56;4989619;28;20207;-69
2023/03/10 03:42:51;;;;;;;29.47;18.70;;;;;;;1.41;100.00;99111.31;4990207;28;20200;-70
2023/03/10 03:45:23;;;;;;;30.07;18.57;;;;;;;1.44;100.00;99107.22;4983668;28;20191;-69
2023/03/10 03:47:49;;;;;;;31.60;18.40;;;;;;;1.43;100.00;99108.06;4987956;28;20198;-69
2023/03/10 03:50:16;;;;;;;31.67;19.00;;;;;;;1.43;100.00;99097.97;4990550;28;20228;-68
2023/03/10 03:52:43;;;;;;;31.13;19.83;;;;;;;1.45;100.00;99097.97;4989192;28;20199;-68
2023/03/10 03:55:11;;;;;;;32.57;20.17;;;;;;;1.43;100.00;99103.00;4989542;28;20315;-68
2023/03/10 03:57:37;;;;;;;29.17;18.93;;;;;;;1.40;100.00;99087.78;5006309;28;20196;-68
2023/03/10 04:00:08;;;;;;;31.57;19.13;;;;;;;1.43;100.00;99097.97;4987957;28;20231;-69
2023/03/10 04:02:38;;;;;;;33.57;19.57;;;;;;;1.45;100.00;99096.34;4994687;28;20207;-66
2023/03/10 04:05:06;;;;;;;32.07;19.87;;;;;;;1.46;100.00;99095.50;4990598;28;20196;-69
2023/03/10 04:07:33;;;;;;;30.70;19.20;;;;;;;1.44;100.00;99089.59;4990608;28;20223;-68
2023/03/10 04:09:58;;;;;;;32.13;19.57;;;;;;;1.42;100.00;99087.84;4987410;28;20242;-69
2023/03/10 04:12:26;;;;;;;33.67;19.67;;;;;;;1.41;100.00;99089.50;4991873;28;20189;-69
2023/03/10 04:14:52;;;;;;;31.67;19.40;;;;;;;1.41;100.00;99089.50;4990530;28;20310;-68
2023/03/10 04:17:17;;;;;;;32.30;19.03;;;;;;;1.44;100.00;99088.72;4973361;28;20203;-69
2023/03/10 04:19:43;;;;;;;31.77;18.93;;;;;;;1.44;100.00;99084.53;4990031;28;20274;-68
2023/03/10 04:22:13;;;;;;;32.90;20.40;;;;;;;1.43;100.00;99085.38;4987623;28;20197;-69
2023/03/10 04:24:38;;;;;;;28.93;18.40;;;;;;;1.41;100.00;99079.41;4988495;28;20191;-68
2023/03/10 04:27:08;;;;;;;32.40;19.03;;;;;;;1.43;100.00;99081.97;4990313;28;20199;-69
2023/03/10 04:29:35;;;;;;;29.03;18.30;;;;;;;1.44;100.00;99076.13;4991809;28;20219;-69
2023/03/10 04:32:00;;;;;;;31.03;19.10;;;;;;;1.44;100.00;99073.59;4991482;28;20218;-68
2023/03/10 04:34:26;;;;;;;31.47;20.13;;;;;;;1.41;100.00;99070.97;4991988;28;20222;-68
2023/03/10 04:36:51;;;;;;;32.47;18.97;;;;;;;1.41;100.00;99061.75;4990954;28;20763;-68
2023/03/10 04:39:18;;;;;;;29.67;18.20;;;;;;;1.40;100.00;99066.75;4991186;28;20262;-68
2023/03/10 04:41:43;;;;;;;30.70;19.23;;;;;;;1.41;100.00;99061.75;4993730;28;20203;-68
2023/03/10 04:44:10;;;;;;;31.00;19.00;;;;;;;1.42;100.00;99060.13;4991153;28;20656;-69
2023/03/10 04:46:37;;;;;;;31.20;18.80;;;;;;;1.40;100.00;99052.50;4994735;28;20192;-69
2023/03/10 04:49:02;;;;;;;30.73;19.53;;;;;;;1.41;100.00;99056.72;4992938;28;20610;-70
2023/03/10 04:51:28;;;;;;;32.93;18.43;;;;;;;1.38;100.00;99051.59;4993777;28;20195;-69
2023/03/10 04:53:56;;;;;;;30.73;18.33;;;;;;;1.38;100.00;99043.19;4975710;28;20254;-69
2023/03/10 04:56:24;;;;;;;29.77;17.47;;;;;;;1.38;100.00;99048.22;4988459;28;20206;-67
2023/03/10 04:58:50;;;;;;;30.17;18.37;;;;;;;1.37;100.00;99046.53;4993344;28;20687;-69
2023/03/10 05:01:16;;;;;;;33.47;20.53;;;;;;;1.34;100.00;99043.94;4993923;28;20212;-69
2023/03/10 05:03:45;;;;;;;32.87;20.10;;;;;;;1.36;100.00;99039.75;4977101;28;20275;-68
2023/03/10 05:06:14;;;;;;;33.80;20.40;;;;;;;1.34;100.00;99042.28;4977450;28;20195;-68
2023/03/10 05:08:41;;;;;;;32.27;19.40;;;;;;;1.34;100.00;99033.84;4987662;28;20212;-69
2023/03/10 05:11:07;;;;;;;33.07;20.00;;;;;;;1.34;100.00;99032.19;4987553;28;20207;-67
2023/03/10 05:13:33;;;;;;;30.63;18.87;;;;;;;1.36;100.00;99025.50;4992792;28;20560;-69
2023/03/10 05:15:59;;;;;;;33.57;19.47;;;;;;;1.34;100.00;99026.28;4987508;28;20207;-68
2023/03/10 05:18:25;;;;;;;34.00;20.10;;;;;;;1.33;100.00;99017.03;4991622;28;20207;-67
2023/03/10 05:20:57;;;;;;;34.83;21.17;;;;;;;1.29;100.00;99013.53;4989925;28;20827;-68
2023/03/10 05:23:23;;;;;;;37.00;20.80;;;;;;;1.27;100.00;99012.66;5007151;28;20609;-68
2023/03/10 05:25:49;;;;;;;34.03;20.70;;;;;;;1.30;100.00;99012.75;4992814;28;20184;-68
2023/03/10 05:28:16;;;;;;;37.23;22.03;;;;;;;1.30;100.00;99009.38;4990787;28;20201;-68
2023/03/10 05:30:42;;;;;;;35.47;21.10;;;;;;;1.31;100.00;99003.50;4991466;28;20226;-68
2023/03/10 05:33:07;;;;;;;35.00;20.53;;;;;;;1.31;100.00;99003.50;4992052;28;20294;-68
2023/03/10 05:35:33;;;;;;;39.43;21.93;;;;;;;1.30;100.00;99005.19;4987425;28;20204;-68
2023/03/10 05:37:58;;;;;;;36.70;21.90;;;;;;;1.28;100.00;98990.84;4989406;28;20219;-67
2023/03/10 05:40:24;;;;;;;36.20;21.17;;;;;;;1.28;100.00;99005.97;4986628;28;20211;-68
2023/03/10 05:42:50;;;;;;;34.53;20.73;;;;;;;1.26;100.00;98993.31;4984631;28;20812;-68
2023/03/10 05:45:17;;;;;;;33.57;20.23;;;;;;;1.25;100.00;98993.28;4989120;28;21000;-67
2023/03/10 05:47:45;;;;;;;34.43;20.23;;;;;;;1.24;100.00;98994.94;5004152;28;20199;-67
2023/03/10 05:50:13;;;;;;;36.00;20.40;;;;;;;1.22;100.00;98994.06;4985311;28;20262;-67
2023/03/10 05:52:41;;;;;;;33.10;19.97;;;;;;;1.25;100.00;99000.84;4987393;28;20246;-68
2023/03/10 05:55:11;;;;;;;33.83;19.90;;;;;;;1.23;100.00;98995.75;4990259;28;20215;-68
2023/03/10 05:57:36;;;;;;;32.43;19.13;;;;;;;1.25;100.00;99003.34;4987050;28;20279;-67
2023/03/10 06:00:04;;;;;;;31.77;19.83;;;;;;;1.23;100.00;98998.28;4987996;28;20307;-68
2023/03/10 06:02:39;;;;;;;35.87;21.47;;;;;;;1.24;100.00;99004.19;4990244;28;20206;-67
2023/03/10 06:05:07;;;;;;;34.13;21.00;;;;;;;1.23;100.00;99005.84;4987003;28;20254;-68
2023/03/10 06:07:33;;;;;;;33.57;19.57;;;;;;;1.22;100.00;99008.31;4989873;28;20711;-68
2023/03/10 06:09:58;;;;;;;32.73;19.90;;;;;;;1.24;100.00;99001.66;4987856;28;20302;-68
2023/03/10 06:12:24;;;;;;;32.90;18.90;;;;;;;1.24;100.00;99009.22;4990020;28;20218;-68
2023/03/10 06:14:49;;;;;;;32.57;20.30;;;;;;;1.21;100.00;99004.97;4989589;28;20514;-68
2023/03/10 06:17:15;;;;;;;30.70;18.97;;;;;;;1.25;100.00;99013.44;4990217;28;20235;-68
2023/03/10 06:19:40;;;;;;;30.47;19.57;;;;;;;1.27;100.00;99011.78;4988490;28;20638;-68
2023/03/10 06:22:06;;;;;;;31.03;18.83;;;;;;;1.27;100.00;99015.19;4986820;28;20199;-67
2023/03/10 06:24:31;;;;;;;28.83;18.47;;;;;;;1.28;100.00;99006.81;4989569;28;20194;-68
2023/03/10 06:26:57;;;;;;;26.53;17.53;;;;;;;1.29;100.00;99013.53;4989917;28;20239;-67
2023/03/10 06:29:22;;;;;;;28.63;18.33;;;;;;;1.33;100.00;99007.78;4990046;28;20302;-67
2023/03/10 06:31:48;;;;;;;30.60;17.87;;;;;;;1.33;100.00;99010.28;4990474;28;20203;-68
2023/03/10 06:34:13;;;;;;;29.47;18.53;;;;;;;1.37;100.00;99013.78;4988781;28;20223;-67
2023/03/10 06:36:40;;;;;;;31.27;18.03;;;;;;;1.33;100.00;99012.81;4990137;28;20310;-67
2023/03/10 06:39:06;;;;;;;30.20;19.70;;;;;;;1.40;100.00;99013.81;4989548;28;20293;-68
2023/03/10 06:41:33;;;;;;;29.27;19.03;;;;;;;1.42;100.00;99019.78;4989534;28;20196;-68
2023/03/10 06:43:59;;;;;;;31.33;22.07;;;;;;;1.41;100.00;99023.09;4990525;28;20180;-68
2023/03/10 06:46:24;;;;;;;30.30;20.43;;;;;;;1.44;100.00;99030.75;4989316;28;20194;-68
2023/03/10 06:48:50;;;;;;;28.07;18.37;;;;;;;1.44;100.00;99028.22;4986586;28;20701;-68
2023/03/10 06:51:18;;;;;;;27.90;17.80;;;;;;;1.46;100.00;99026.59;4988749;28;20227;-67
2023/03/10 06:53:45;;;;;;;27.23;17.30;;;;;;;1.49;100.00;99032.56;4988924;28;20299;-68
2023/03/10 06:56:14;;;;;;;33.27;26.10;;;;;;;1.53;100.00;99030.97;4988969;28;20215;-69
2023/03/10 06:58:40;;;;;;;30.23;21.47;;;;;;;1.55;100.00;99037.75;4988862;28;20533;-67
2023/03/10 07:01:06;;;;;;;29.57;19.77;;;;;;;1.58;100.00;99037.84;4989727;28;20211;-68
2023/03/10 07:03:33;;;;;;;28.83;19.03;;;;;;;1.62;100.00;99046.34;4989012;28;20199;-68
2023/03/10 07:05:59;;;;;;;23.37;15.47;;;;;;;1.61;100.00;99045.47;4990297;28;20327;-68
2023/03/10 07:08:25;;;;;;;25.87;17.43;;;;;;;1.66;100.00;99048.97;4987802;28;20219;-69
2023/03/10 07:10:51;;;;;;;27.27;19.10;;;;;;;1.65;100.00;99054.00;4986789;28;20298;-68
2023/03/10 07:13:16;;;;;;;25.40;17.43;;;;;;;1.66;100.00;99060.72;4988575;28;20899;-68
2023/03/10 07:15:44;;;;;;;26.37;18.07;;;;;;;1.66;100.00;99066.59;4991187;28;20638;-68
2023/03/10 07:18:10;;;;;;;25.17;16.77;;;;;;;1.68;100.00;99066.66;4986266;28;20206;-68
2023/03/10 07:20:38;;;;;;;25.87;17.03;;;;;;;1.67;100.00;99075.03;4989676;28;20215;-67
2023/03/10 07:23:04;;;;;;;26.53;17.57;;;;;;;1.68;100.00;99069.19;4989969;28;20192;-68
2023/03/10 07:25:29;;;;;;;24.47;15.73;;;;;;;1.74;100.00;99077.75;4989443;28;20194;-68
2023/03/10 07:27:55;;;;;;;25.80;17.53;;;;;;;1.75;100.00;99074.41;4987614;28;20207;-68
2023/03/10 07:30:20;;;;;;;25.70;17.13;;;;;;;1.79;100.00;99078.72;4988026;28;20218;-69
2023/03/10 07:32:46;;;;;;;23.67;16.13;;;;;;;1.78;100.00;99082.06;4990029;28;20192;-68
2023/03/10 07:35:11;;;;;;;24.50;16.00;;;;;;;1.82;100.00;99080.47;4991012;28;20210;-68
2023/03/10 07:37:39;;;;;;;26.07;16.67;;;;;;;1.85;100.00;99081.41;4989176;28;20576;-68
2023/03/10 07:40:06;;;;;;;23.50;15.93;;;;;;;1.88;100.00;99081.47;4990936;28;20301;-68
2023/03/10 07:42:31;;;;;;;24.80;16.00;;;;;;;1.86;100.00;99083.13;4998912;28;20220;-68
2023/03/10 07:44:57;;;;;;;23.30;15.60;;;;;;;1.88;100.00;99088.19;4987913;28;20616;-68
2023/03/10 07:47:22;;;;;;;23.67;16.17;;;;;;;1.91;100.00;99080.69;4991957;28;20194;-68
2023/03/10 07:49:48;;;;;;;32.00;22.93;;;;;;;1.94;100.00;99083.31;4990644;28;20208;-68
2023/03/10 07:52:15;;;;;;;37.23;25.13;;;;;;;1.93;100.00;99089.16;4990673;28;20191;-68
2023/03/10 07:54:43;;;;;;;23.17;16.83;;;;;;;1.93;100.00;99092.53;4989087;28;20247;-68
2023/03/10 07:57:09;;;;;;;23.00;15.90;;;;;;;1.98;100.00;99087.59;4991399;28;20203;-69
2023/03/10 07:59:35;;;;;;;22.33;15.40;;;;;;;1.94;100.00;99086.69;4988588;28;20569;-68
2023/03/10 08:02:01;;;;;;;21.90;15.13;;;;;;;1.97;100.00;99089.25;4994002;28;20838;-68
2023/03/10 08:04:26;;;;;;;22.70;15.63;;;;;;;1.94;100.00;99093.41;4993199;28;20186;-68
2023/03/10 08:06:51;;;;;;;21.47;14.83;;;;;;;2.00;100.00;99091.00;4993176;28;20196;-67
2023/03/10 08:09:17;;;;;;;23.23;15.87;;;;;;;1.96;100.00;99094.28;4990888;28;20257;-67
2023/03/10 08:11:42;;;;;;;19.93;15.03;;;;;;;1.93;100.00;99094.22;4992648;28;20230;-67
2023/03/10 08:14:08;;;;;;;21.60;15.13;;;;;;;2.00;100.00;99096.91;4992273;28;20207;-67
2023/03/10 08:16:33;;;;;;;20.93;14.40;;;;;;;1.97;100.00;99094.31;4994317;28;20273;-67
2023/03/10 08:18:59;;;;;;;22.13;15.27;;;;;;;2.03;100.00;99107.09;4992895;28;20208;-67
2023/03/10 08:21:24;;;;;;;21.63;15.47;;;;;;;2.02;100.00;99109.59;4994248;28;20191;-67
2023/03/10 08:23:49;;;;;;;23.73;15.50;;;;;;;1.99;100.00;99109.50;4998901;28;20735;-68
2023/03/10 08:26:17;;;;;;;21.50;15.10;;;;;;;2.02;100.00;99123.03;5013687;28;20191;-68
2023/03/10 08:28:43;;;;;;;20.93;14.03;;;;;;;2.00;100.00;99124.69;5013554;28;20221;-68
2023/03/10 08:31:11;;;;;;;21.73;14.80;;;;;;;2.07;100.00;99124.00;5014025;28;20222;-68
2023/03/10 08:33:37;;;;;;;20.40;14.30;;;;;;;2.04;100.00;99130.66;5012982;28;20222;-69
2023/03/10 08:36:10;;;;;;;22.13;15.00;;;;;;;2.05;100.00;99130.69;5011412;28;20203;-69
2023/03/10 08:38:35;;;;;;;23.00;15.73;;;;;;;2.07;100.00;99130.75;5012349;28;20206;-68
2023/03/10 08:41:14;;;;;;;23.07;15.13;;;;;;;2.09;100.00;99131.63;5014139;28;20211;-69
2023/03/10 08:43:40;;;;;;;21.17;15.20;;;;;;;2.09;100.00;99139.19;5013460;28;20249;-69
2023/03/10 08:46:06;;;;;;;20.33;14.27;;;;;;;2.11;100.00;99135.88;5012338;28;20281;-69
2023/03/10 08:48:32;;;;;;;22.27;15.20;;;;;;;2.13;100.00;99135.94;5014458;28;20195;-68
2023/03/10 08:50:58;;;;;;;21.67;14.63;;;;;;;2.11;100.00;99147.66;5014660;28;20264;-68
2023/03/10 08:53:23;;;;;;;22.60;15.47;;;;;;;2.18;100.00;99142.81;5014614;28;20195;-68
2023/03/10 08:55:49;;;;;;;21.90;14.87;;;;;;;2.21;100.00;99137.81;5012729;28;20218;-67
2023/03/10 08:58:15;;;;;;;23.33;15.33;;;;;;;2.25;100.00;99143.81;5014172;28;20787;-68
2023/03/10 09:00:41;;;;;;;21.07;15.47;;;;;;;2.25;100.00;99142.13;5011417;28;20222;-68
2023/03/10 09:03:09;;;;;;;23.13;15.33;;;;;;;2.24;100.00;99148.00;5014609;28;20244;-68
2023/03/10 09:05:38;;;;;;;22.77;15.40;;;;;;;2.18;100.00;99152.91;5012712;28;20886;-68
2023/03/10 09:08:05;;;;;;;23.50;16.33;;;;;;;2.21;100.00;99150.44;5014225;28;20195;-68
2023/03/10 09:10:30;;;;;;;22.43;15.33;;;;;;;2.20;100.00;99153.78;5010952;28;20234;-69
2023/03/10 09:12:56;;;;;;;40.50;25.23;;;;;;;2.19;100.00;99154.59;5014104;28;20195;-68
2023/03/10 09:15:21;;;;;;;31.57;20.30;;;;;;;2.22;100.00;99157.22;5012782;28;20303;-68
2023/03/10 09:17:47;;;;;;;41.77;24.87;;;;;;;2.21;100.00;99157.16;5015358;28;20234;-69
2023/03/10 09:20:14;;;;;;;25.70;17.37;;;;;;;2.20;100.00;99156.31;5011507;28;20238;-68
2023/03/10 09:22:40;;;;;;;26.90;18.03;;;;;;;2.24;100.00;99163.13;5015677;28;20718;-69
2023/03/10 09:25:07;;;;;;;29.90;19.53;;;;;;;2.23;100.00;99155.53;5012668;28;20195;-69
2023/03/10 09:27:32;;;;;;;34.53;22.70;;;;;;;2.23;100.00;99156.38;5012062;28;20199;-69
2023/03/10 09:29:58;;;;;;;27.53;18.40;;;;;;;2.22;100.00;99148.78;5011045;28;20222;-68
2023/03/10 09:32:23;;;;;;;36.30;21.27;;;;;;;2.21;100.00;99152.94;5013528;28;20198;-68
2023/03/10 09:34:49;;;;;;;38.77;24.33;;;;;;;2.26;100.00;99156.44;5012184;28;20210;-69
2023/03/10 09:37:14;;;;;;;30.77;20.07;;;;;;;2.27;100.00;99158.19;5014171;28;20191;-69
2023/03/10 09:39:40;;;;;;;32.30;21.97;;;;;;;2.23;100.00;99156.38;5013519;28;20293;-69
2023/03/10 09:42:05;;;;;;;31.53;20.17;;;;;;;2.24;100.00;99153.03;5012793;28;20187;-68
2023/03/10 09:44:46;;;;;;;31.63;20.20;;;;;;;2.23;100.00;99155.53;5009118;28;20191;-69
2023/03/10 09:47:14;;;;;;;25.77;18.03;;;;;;;2.22;100.00;99154.69;5013855;28;20305;-68
2023/03/10 09:49:57;;;;;;;27.83;18.70;;;;;;;2.19;100.00;99149.56;4993715;28;20233;-68
2023/03/10 09:52:27;;;;;;;31.17;19.87;;;;;;;2.24;100.00;99150.50;5011618;28;20187;-68
2023/03/10 09:55:04;;;;;;;38.37;22.50;;;;;;;2.16;100.00;99149.47;5005223;28;20215;-69
2023/03/10 09:57:30;;;;;;;34.57;21.03;;;;;;;2.16;100.00;99149.47;5010362;28;20195;-69
2023/03/10 10:00:00;;;;;;;40.47;26.53;;;;;;;2.13;100.00;99149.41;5006586;28;20219;-68
2023/03/10 10:02:31;;;;;;;34.23;21.20;;;;;;;2.11;100.00;99145.97;5010906;28;20234;-68
2023/03/10 10:05:05;;;;;;;31.47;19.73;;;;;;;2.18;100.00;99137.75;5012013;28;20199;-68
2023/03/10 10:07:44;;;;;;;31.53;20.17;;;;;;;2.16;100.00;99146.09;5012444;28;20578;-68
2023/03/10 10:10:18;;;;;;;31.17;19.97;;;;;;;2.13;100.00;99144.38;5011157;28;20218;-69
2023/03/10 10:12:48;;;;;;;34.07;18.60;;;;;;;2.10;100.00;99136.69;5013559;28;20193;-68
2023/03/10 10:15:17;;;;;;;32.90;19.03;;;;;;;2.07;100.00;99134.09;5012650;28;20293;-68
2023/03/10 10:17:43;;;;;;;31.73;19.50;;;;;;;2.11;100.00;99122.44;5013338;28;20690;-68
2023/03/10 10:20:41;;;;;;;31.50;19.17;;;;;;;2.08;100.00;99120.69;5009880;28;20250;-68
2023/03/10 10:23:31;;;;;;;29.57;18.77;;;;;;;2.10;100.00;99116.50;5010651;28;20687;-68
2023/03/10 10:26:06;;;;;;;33.23;19.17;;;;;;;2.13;100.00;99134.28;5011047;28;20195;-68
2023/03/10 10:28:40;;;;;;;31.80;18.67;;;;;;;2.18;100.00;99142.81;5013393;28;20202;-67
2023/03/10 10:31:16;;;;;;;34.37;20.50;;;;;;;2.19;100.00;99153.72;5008539;28;20233;-68
2023/03/10 10:33:51;;;;;;;31.07;20.10;;;;;;;2.28;100.00;99161.53;5013997;28;20597;-69
2023/03/10 10:36:17;;;;;;;33.83;20.70;;;;;;;2.24;100.00;99165.66;5010705;28;20213;-68
2023/03/10 10:38:48;;;;;;;34.10;20.13;;;;;;;2.26;100.00;99180.84;5010085;28;20610;-69
2023/03/10 10:41:20;;;;;;;35.50;21.60;;;;;;;2.31;100.00;99187.72;5011484;28;20558;-69
2023/03/10 10:43:47;;;;;;;34.93;21.03;;;;;;;2.38;100.00;99183.66;5008812;28;20205;-68
2023/03/10 10:46:21;;;;;;;33.17;19.73;;;;;;;2.43;100.00;99184.66;5007068;28;20294;-69
2023/03/10 10:48:49;;;;;;;33.87;21.17;;;;;;;2.51;100.00;99189.06;5011007;28;20229;-68
2023/03/10 10:51:19;;;;;;;37.43;21.70;;;;;;;2.51;100.00;99189.06;5011455;28;20223;-68
2023/03/10 10:53:45;;;;;;;31.43;20.13;;;;;;;2.53;100.00;99196.69;5007942;28;20567;-69
2023/03/10 10:56:15;;;;;;;35.47;20.93;;;;;;;2.60;100.00;99186.75;5016166;28;20238;-68
2023/03/10 10:58:59;;;;;;;35.13;21.43;;;;;;;2.67;100.00;99187.75;4990495;28;20202;-69
2023/03/10 11:01:24;;;;;;;36.87;22.10;;;;;;;2.67;100.00;99186.06;5004062;28;20183;-68
2023/03/10 11:04:05;;;;;;;37.30;21.57;;;;;;;2.71;100.00;99192.91;5013344;28;20736;-68
2023/03/10 11:06:36;;;;;;;39.53;23.07;;;;;;;2.74;100.00;99187.06;5025080;28;20218;-68
2023/03/10 11:09:08;;;;;;;37.13;22.13;;;;;;;2.70;100.00;99180.22;5011580;28;20206;-68
2023/03/10 11:11:43;;;;;;;35.57;20.90;;;;;;;2.61;100.00;99183.41;5011093;28;20214;-69
2023/03/10 11:14:27;;;;;;;43.53;23.63;;;;;;;2.73;100.00;99172.72;4992932;28;20191;-68
2023/03/10 11:16:55;;;;;;;37.23;21.90;;;;;;;2.74;100.00;99161.78;5009300;28;20244;-68
2023/03/10 11:19:51;;;;;;;38.07;22.73;;;;;;;2.76;100.00;99166.06;5013447;28;20231;-69